Station Historical Data
Daily Summary for September 6, 2017 Units:  English    Metric   Both
« Previous Day
Next Day »
Daily Weekly Monthly Yearly Custom
  High: Low: Average:
Temperature: 70.9 °F 60.4 °F 65.3 °F
Dew Point: 66.3 °F 48.4 °F 59.3 °F
Humidity: 94% 49% 82%
Wind Speed: 1.0mph 0.0mph 0.1mph
Wind Gust: 6.0mph - -
Wind- - SW
Pressure: 30.01 in 29.86 in -
Precipitation: 0.01 in    
Historical Graphs
 
 
Tabular Data for September 6, 2017
Time Temperature Dew Point Pressure Wind Wind Speed Wind Gust Humidity Rainfall Rate (Hourly) solar Conditions
00:00 67.7 °F 65.9 °F 29.93 in Calm     94% 0.00 in WeatherDisplay:10.37 W/m2 RA
00:10 67.8 °F 66.0 °F 29.94 in Calm     94% 0.00 in WeatherDisplay:10.37 W/m2 SCT
00:15 67.8 °F 66.1 °F 29.93 in Calm     94% 0.00 in WeatherDisplay:10.37 W/m2 SCT
00:20 67.9 °F 66.1 °F 29.94 in Calm     94% 0.00 in WeatherDisplay:10.37 W/m2 BKN
00:25 67.9 °F 66.1 °F 29.94 in Calm     94% 0.00 in WeatherDisplay:10.37 W/m2 BKN
00:30 68.0 °F 66.2 °F 29.94 in Calm     94% 0.00 in WeatherDisplay:10.37 W/m2 BKN
00:35 68.1 °F 66.3 °F 29.94 in Calm     94% 0.00 in WeatherDisplay:10.37 W/m2 BKN
00:40 68.1 °F 66.3 °F 29.94 in Calm     94% 0.00 in WeatherDisplay:10.37 W/m2 BKN
00:45 67.9 °F 66.1 °F 29.94 in Calm     94% 0.00 in WeatherDisplay:10.37 W/m2 BKN
00:55 67.7 °F 65.6 °F 29.94 in Calm     93% 0.00 in WeatherDisplay:10.37 W/m2 BKN
01:00 67.6 °F 65.6 °F 29.94 in Calm     93% 0.00 in WeatherDisplay:10.37 W/m2 BKN
01:05 67.6 °F 65.8 °F 29.93 in Calm     94% 0.00 in WeatherDisplay:10.37 W/m2 OVC
01:10 67.6 °F 65.8 °F 29.93 in Calm     94% 0.00 in WeatherDisplay:10.37 W/m2 OVC
01:15 67.6 °F 65.8 °F 29.93 in Calm     94% 0.00 in WeatherDisplay:10.37 W/m2 OVC
01:20 67.6 °F 65.8 °F 29.93 in Calm     94% 0.00 in WeatherDisplay:10.37 W/m2 OVC
01:25 67.5 °F 65.7 °F 29.93 in Calm     94% 0.00 in WeatherDisplay:10.37 W/m2 OVC
01:30 67.5 °F 65.7 °F 29.93 in Calm     94% 0.00 in WeatherDisplay:10.37 W/m2 BKN
01:40 67.4 °F 65.6 °F 29.93 in Calm     94% 0.00 in WeatherDisplay:10.37 W/m2 BKN
01:45 67.3 °F 65.5 °F 29.92 in Calm     94% 0.00 in WeatherDisplay:10.37 W/m2 BKN
01:50 67.3 °F 65.5 °F 29.92 in Calm     94% 0.00 in WeatherDisplay:10.37 W/m2 BKN
01:55 67.4 °F 65.6 °F 29.92 in Calm     94% 0.00 in WeatherDisplay:10.37 W/m2 BKN
02:00 67.4 °F 65.6 °F 29.92 in Calm     94% 0.00 in WeatherDisplay:10.37 W/m2 BKN
02:05 67.5 °F 65.7 °F 29.91 in Calm     94% 0.00 in WeatherDisplay:10.37 W/m2 BKN
02:10 67.4 °F 65.6 °F 29.91 in Calm     94% 0.00 in WeatherDisplay:10.37 W/m2 BKN
02:15 67.3 °F 65.5 °F 29.91 in Calm     94% 0.00 in WeatherDisplay:10.37 W/m2 BKN
02:20 67.3 °F 65.5 °F 29.91 in Calm     94% 0.00 in WeatherDisplay:10.37 W/m2 BKN
02:25 67.3 °F 65.5 °F 29.91 in Calm     94% 0.00 in WeatherDisplay:10.37 W/m2 BKN
02:30 67.3 °F 65.5 °F 29.91 in Calm     94% 0.00 in WeatherDisplay:10.37 W/m2 BKN
02:40 67.2 °F 65.4 °F 29.91 in Calm     94% 0.00 in WeatherDisplay:10.37 W/m2 BKN
02:45 67.2 °F 65.4 °F 29.91 in Calm     94% 0.00 in WeatherDisplay:10.37 W/m2 BKN
02:50 67.1 °F 65.3 °F 29.90 in Calm     94% 0.00 in WeatherDisplay:10.37 W/m2 BKN
02:55 67.1 °F 65.3 °F 29.90 in Calm   1.0 mph 94% 0.00 in WeatherDisplay:10.37 W/m2 BKN
03:00 67.1 °F 65.3 °F 29.90 in Calm   1.0 mph 94% 0.00 in WeatherDisplay:10.37 W/m2 BKN
03:05 67.1 °F 65.3 °F 29.89 in Calm   1.0 mph 94% 0.00 in WeatherDisplay:10.37 W/m2 BKN
03:10 67.0 °F 65.2 °F 29.88 in Calm     94% 0.00 in WeatherDisplay:10.37 W/m2 BKN
03:15 67.0 °F 65.2 °F 29.88 in Calm     94% 0.00 in WeatherDisplay:10.37 W/m2 BKN
03:20 67.0 °F 65.2 °F 29.89 in Calm     94% 0.00 in WeatherDisplay:10.37 W/m2 OVC
03:25 67.1 °F 65.3 °F 29.88 in Calm     94% 0.00 in WeatherDisplay:10.37 W/m2 OVC
03:30 67.1 °F 65.3 °F 29.88 in Calm   1.0 mph 94% 0.00 in WeatherDisplay:10.37 W/m2 OVC
03:35 67.1 °F 65.3 °F 29.88 in Calm     94% 0.00 in WeatherDisplay:10.37 W/m2 OVC
03:40 67.1 °F 65.4 °F 29.88 in Calm     94% 0.00 in WeatherDisplay:10.37 W/m2 OVC
03:45 67.1 °F 65.4 °F 29.88 in Calm     94% 0.00 in WeatherDisplay:10.37 W/m2 OVC
03:50 67.2 °F 65.4 °F 29.88 in Calm     94% 0.00 in WeatherDisplay:10.37 W/m2 OVC
03:55 67.1 °F 65.3 °F 29.88 in Calm   1.0 mph 94% 0.00 in WeatherDisplay:10.37 W/m2 OVC
04:00 67.0 °F 65.2 °F 29.88 in Calm   3.0 mph 94% 0.00 in WeatherDisplay:10.37 W/m2 OVC
04:05 66.9 °F 65.1 °F 29.87 in Calm   1.0 mph 94% 0.00 in WeatherDisplay:10.37 W/m2 OVC
04:10 66.6 °F 64.8 °F 29.87 in Calm   2.0 mph 94% 0.00 in WeatherDisplay:10.37 W/m2 OVC
04:15 66.5 °F 64.7 °F 29.87 in Calm   1.0 mph 94% 0.00 in WeatherDisplay:10.37 W/m2 OVC
04:20 66.4 °F 64.6 °F 29.87 in Calm     94% 0.00 in WeatherDisplay:10.37 W/m2 OVC
04:25 66.3 °F 64.5 °F 29.87 in Calm   1.0 mph 94% 0.00 in WeatherDisplay:10.37 W/m2 OVC
04:30 66.2 °F 64.4 °F 29.87 in Calm   2.0 mph 94% 0.00 in WeatherDisplay:10.37 W/m2 OVC
04:35 66.2 °F 64.4 °F 29.87 in Calm   1.0 mph 94% 0.00 in WeatherDisplay:10.37 W/m2 OVC
04:40 66.1 °F 64.3 °F 29.87 in Calm   2.0 mph 94% 0.00 in WeatherDisplay:10.37 W/m2 OVC
04:45 66.0 °F 64.2 °F 29.87 in Calm   2.0 mph 94% 0.00 in WeatherDisplay:10.37 W/m2 OVC
04:50 65.8 °F 63.7 °F 29.87 in Calm   1.0 mph 93% 0.00 in WeatherDisplay:10.37 W/m2 OVC
04:55 65.6 °F 63.5 °F 29.86 in Calm   1.0 mph 93% 0.00 in WeatherDisplay:10.37 W/m2 OVC
05:00 65.4 °F 63.3 °F 29.86 in Calm   2.0 mph 93% 0.00 in WeatherDisplay:10.37 W/m2 OVC
05:05 65.1 °F 63.0 °F 29.86 in Calm   3.0 mph 93% 0.00 in WeatherDisplay:10.37 W/m2 OVC
05:10 65.0 °F 62.9 °F 29.86 in Calm   1.0 mph 93% 0.00 in WeatherDisplay:10.37 W/m2 OVC
05:20 64.8 °F 62.7 °F 29.87 in Calm   1.0 mph 93% 0.00 in WeatherDisplay:10.37 W/m2 OVC
05:25 64.5 °F 62.4 °F 29.87 in Calm     93% 0.00 in WeatherDisplay:10.37 W/m2 OVC
05:30 64.3 °F 62.2 °F 29.87 in Calm   1.0 mph 93% 0.00 in WeatherDisplay:10.37 W/m2 OVC
05:35 63.9 °F 61.8 °F 29.88 in Calm   1.0 mph 93% 0.00 in WeatherDisplay:10.37 W/m2 OVC
05:40 63.7 °F 61.6 °F 29.88 in Calm   1.0 mph 93% 0.00 in WeatherDisplay:10.37 W/m2 OVC
05:45 63.4 °F 61.3 °F 29.88 in Calm   1.0 mph 93% 0.00 in WeatherDisplay:10.37 W/m2 OVC
05:50 63.2 °F 61.1 °F 29.88 in Calm   1.0 mph 93% 0.00 in WeatherDisplay:10.37 W/m2 BKN
05:55 63.1 °F 61.0 °F 29.88 in Calm     93% 0.00 in WeatherDisplay:10.37 W/m2 BKN
06:00 62.9 °F 60.8 °F 29.88 in Calm   1.0 mph 93% 0.00 in WeatherDisplay:10.37 W/m2 BKN
06:05 62.8 °F 60.7 °F 29.88 in Calm   1.0 mph 93% 0.00 in WeatherDisplay:10.37 W/m2 BKN
06:10 62.6 °F 60.5 °F 29.88 in Calm   1.0 mph 93% 0.00 in WeatherDisplay:10.37 W/m2 BKN
06:15 62.5 °F 60.4 °F 29.88 in Calm     93% 0.00 in WeatherDisplay:10.37 W/m2 BKN
06:20 62.4 °F 60.3 °F 29.88 in Calm     93% 0.00 in WeatherDisplay:10.37 W/m2 OVC
06:25 62.3 °F 60.2 °F 29.89 in Calm   1.0 mph 93% 0.00 in WeatherDisplay:10.37 W/m2 OVC
06:30 62.2 °F 60.2 °F 29.89 in Calm     93% 0.00 in WeatherDisplay:10.37 W/m2 OVC
06:35 62.1 °F 60.1 °F 29.89 in Calm   1.0 mph 93% 0.00 in WeatherDisplay:10.37 W/m2 OVC
06:40 62.0 °F 59.9 °F 29.88 in Calm     93% 0.00 in WeatherDisplay:10.37 W/m2 OVC
06:45 61.9 °F 59.9 °F 29.89 in Calm     93% 0.00 in WeatherDisplay:10.37 W/m2 OVC
06:50 61.8 °F 59.8 °F 29.88 in Calm   1.0 mph 93% 0.00 in WeatherDisplay:10.37 W/m2 OVC
06:55 61.7 °F 59.7 °F 29.89 in Calm     93% 0.00 in WeatherDisplay:10.37 W/m2 OVC
07:00 61.6 °F 59.6 °F 29.88 in Calm     93% 0.00 in WeatherDisplay:10.37 W/m2 OVC
07:05 61.5 °F 59.5 °F 29.89 in Calm     93% 0.00 in WeatherDisplay:10.37 W/m2 OVC
07:10 61.4 °F 59.4 °F 29.89 in Calm   1.0 mph 93% 0.00 in WeatherDisplay:10.37 W/m2 OVC
07:15 61.3 °F 59.3 °F 29.90 in Calm   1.0 mph 93% 0.00 in WeatherDisplay:10.37 W/m2 OVC
07:20 61.3 °F 59.3 °F 29.90 in Calm     93% 0.00 in WeatherDisplay:10.37 W/m2 OVC
07:25 61.2 °F 59.2 °F 29.90 in Calm   1.0 mph 93% 0.00 in WeatherDisplay:10.37 W/m2 OVC
07:30 61.1 °F 59.1 °F 29.89 in Calm     93% 0.00 in WeatherDisplay:10.37 W/m2 OVC
07:35 61.1 °F 59.1 °F 29.89 in Calm     93% 0.00 in WeatherDisplay:10.37 W/m2 OVC
07:40 61.1 °F 59.1 °F 29.89 in Calm     93% 0.00 in WeatherDisplay:10.37 W/m2 OVC
07:50 60.9 °F 58.9 °F 29.90 in Calm     93% 0.00 in WeatherDisplay:10.37 W/m2 OVC
07:55 60.9 °F 58.9 °F 29.90 in Calm     93% 0.00 in WeatherDisplay:10.37 W/m2 OVC
08:00 61.0 °F 59.0 °F 29.90 in Calm     93% 0.00 in WeatherDisplay:10.37 W/m2 OVC
08:10 61.0 °F 59.0 °F 29.90 in Calm     93% 0.00 in WeatherDisplay:10.37 W/m2 OVC
08:15 61.0 °F 59.0 °F 29.90 in Calm     93% 0.00 in WeatherDisplay:10.37 W/m2 OVC
08:20 61.0 °F 59.0 °F 29.91 in Calm     93% 0.00 in WeatherDisplay:10.37 W/m2 OVC
08:25 61.1 °F 59.1 °F 29.91 in Calm   1.0 mph 93% 0.00 in WeatherDisplay:10.37 W/m2 OVC
08:30 61.1 °F 59.1 °F 29.90 in Calm     93% 0.00 in WeatherDisplay:10.37 W/m2 OVC
08:35 61.1 °F 59.1 °F 29.91 in Calm     93% 0.00 in WeatherDisplay:10.37 W/m2 OVC
08:40 61.2 °F 59.2 °F 29.91 in Calm     93% 0.00 in WeatherDisplay:10.37 W/m2 OVC
08:45 61.2 °F 59.2 °F 29.91 in Calm     93% 0.00 in WeatherDisplay:10.37 W/m2 OVC
08:50 61.2 °F 59.2 °F 29.92 in Calm     93% 0.00 in WeatherDisplay:10.37 W/m2 OVC
08:55 61.2 °F 59.2 °F 29.92 in Calm   1.0 mph 93% 0.00 in WeatherDisplay:10.37 W/m2 OVC
09:00 61.3 °F 59.3 °F 29.92 in Calm   1.0 mph 93% 0.00 in WeatherDisplay:10.37 W/m2 OVC
09:10 61.5 °F 59.5 °F 29.92 in Calm   1.0 mph 93% 0.00 in WeatherDisplay:10.37 W/m2 OVC
09:15 61.5 °F 59.2 °F 29.92 in Calm   1.0 mph 92% 0.00 in WeatherDisplay:10.37 W/m2 OVC
09:20 61.5 °F 59.2 °F 29.93 in Calm   2.0 mph 92% 0.00 in WeatherDisplay:10.37 W/m2 OVC
09:25 61.6 °F 59.3 °F 29.93 in Calm   1.0 mph 92% 0.00 in WeatherDisplay:10.37 W/m2 OVC
09:30 61.7 °F 59.4 °F 29.93 in Calm   1.0 mph 92% 0.00 in WeatherDisplay:10.37 W/m2 OVC
09:35 61.9 °F 59.5 °F 29.93 in Calm     92% 0.00 in WeatherDisplay:10.37 W/m2 OVC
09:40 61.7 °F 59.4 °F 29.93 in Calm   5.0 mph 92% 0.00 in WeatherDisplay:10.37 W/m2 OVC
09:45 61.8 °F 59.5 °F 29.93 in Calm   1.0 mph 92% 0.00 in WeatherDisplay:10.37 W/m2 OVC
09:50 61.9 °F 59.6 °F 29.93 in Calm     92% 0.00 in WeatherDisplay:10.37 W/m2 OVC
09:55 62.0 °F 59.6 °F 29.93 in Calm     92% 0.00 in WeatherDisplay:10.37 W/m2 OVC
10:05 61.8 °F 59.5 °F 29.95 in Calm     92% 0.00 in WeatherDisplay:10.37 W/m2 OVC
10:10 61.8 °F 59.5 °F 29.95 in Calm     92% 0.00 in WeatherDisplay:10.37 W/m2 OVC
10:15 61.8 °F 59.5 °F 29.95 in Calm     92% 0.00 in WeatherDisplay:10.37 W/m2 OVC
10:20 61.7 °F 59.4 °F 29.95 in Calm     92% 0.00 in WeatherDisplay:10.37 W/m2 OVC
10:25 61.6 °F 59.2 °F 29.95 in Calm     92% 0.00 in WeatherDisplay:10.37 W/m2 OVC
10:30 61.4 °F 58.7 °F 29.96 in Calm     91% 0.00 in WeatherDisplay:10.37 W/m2 -RA
10:35 61.3 °F 59.0 °F 29.96 in Calm     92% 0.00 in WeatherDisplay:10.37 W/m2 -RA
10:40 61.1 °F 58.8 °F 29.95 in Calm     92% 0.00 in WeatherDisplay:10.37 W/m2 -RA
10:45 61.1 °F 58.8 °F 29.95 in Calm     92% 0.00 in WeatherDisplay:10.37 W/m2 -RA
10:50 61.0 °F 58.6 °F 29.95 in Calm     92% 0.00 in WeatherDisplay:10.37 W/m2 -RA
10:55 60.8 °F 58.5 °F 29.94 in Calm   2.0 mph 92% 0.00 in WeatherDisplay:10.37 W/m2 -RA
11:00 60.7 °F 58.4 °F 29.94 in Calm   1.0 mph 92% 0.00 in WeatherDisplay:10.37 W/m2 -RA
11:05 60.6 °F 58.3 °F 29.96 in Calm     92% 0.00 in WeatherDisplay:10.37 W/m2 -RA
11:10 60.6 °F 58.2 °F 29.98 in Calm   1.0 mph 92% 0.01 in WeatherDisplay:10.37 W/m2 -RA
11:15 60.4 °F 58.1 °F 29.98 in Calm     92% 0.00 in WeatherDisplay:10.37 W/m2 -RA
11:20 60.4 °F 58.1 °F 29.97 in Calm   1.0 mph 92% 0.00 in WeatherDisplay:10.37 W/m2 OVC
11:25 60.4 °F 58.1 °F 29.97 in Calm   1.0 mph 92% 0.00 in WeatherDisplay:10.37 W/m2 OVC
11:35 60.8 °F 58.7 °F 29.96 in Calm     93% 0.00 in WeatherDisplay:10.37 W/m2 -RA
11:40 60.8 °F 58.8 °F 29.96 in Calm     93% 0.00 in WeatherDisplay:10.37 W/m2 -RA
11:45 60.7 °F 58.4 °F 29.96 in Calm     92% 0.00 in WeatherDisplay:10.37 W/m2 -RA
11:50 60.8 °F 58.8 °F 29.96 in Calm   1.0 mph 93% 0.00 in WeatherDisplay:10.37 W/m2 -RA
11:55 61.1 °F 59.0 °F 29.97 in Calm     93% 0.00 in WeatherDisplay:10.37 W/m2 -RA
12:00 61.4 °F 59.3 °F 29.97 in Calm   1.0 mph 93% 0.00 in WeatherDisplay:10.37 W/m2 -RA
12:05 61.5 °F 59.2 °F 29.97 in Calm   1.0 mph 92% 0.00 in WeatherDisplay:10.37 W/m2 OVC
12:10 61.6 °F 59.3 °F 29.97 in Calm     92% 0.00 in WeatherDisplay:10.37 W/m2 OVC
12:15 61.6 °F 59.3 °F 29.97 in Calm   1.0 mph 92% 0.00 in WeatherDisplay:10.37 W/m2 OVC
12:20 61.6 °F 59.3 °F 29.97 in Calm     92% 0.00 in WeatherDisplay:10.37 W/m2 OVC
12:25 61.5 °F 58.8 °F 29.97 in Calm   1.0 mph 91% 0.00 in WeatherDisplay:10.37 W/m2 OVC
12:30 61.5 °F 59.2 °F 29.97 in Calm   1.0 mph 92% 0.00 in WeatherDisplay:10.37 W/m2 OVC
12:35 61.7 °F 59.4 °F 29.96 in Calm   1.0 mph 92% 0.00 in WeatherDisplay:10.37 W/m2 OVC
12:40 62.0 °F 59.3 °F 29.96 in Calm   2.0 mph 91% 0.00 in WeatherDisplay:10.37 W/m2 OVC
12:45 62.3 °F 59.6 °F 29.96 in Calm   2.0 mph 91% 0.00 in WeatherDisplay:10.37 W/m2 OVC
12:55 63.3 °F 60.3 °F 29.96 in Calm   1.0 mph 90% 0.00 in WeatherDisplay:10.37 W/m2 OVC
13:00 63.7 °F 60.4 °F 29.97 in Calm   2.0 mph 89% 0.00 in WeatherDisplay:10.37 W/m2 OVC
13:05 64.0 °F 60.7 °F 29.97 in Calm   1.0 mph 89% 0.00 in WeatherDisplay:10.37 W/m2 OVC
13:10 64.4 °F 60.8 °F 29.97 in Calm   1.0 mph 88% 0.00 in WeatherDisplay:10.37 W/m2 OVC
13:15 65.2 °F 60.9 °F 29.97 in Calm   2.0 mph 86% 0.00 in WeatherDisplay:10.37 W/m2 OVC
13:20 65.8 °F 61.2 °F 29.97 in WSW 1.0 mph 2.0 mph 85% 0.00 in WeatherDisplay:10.37 W/m2 BKN
13:25 66.4 °F 61.1 °F 29.97 in Calm   3.0 mph 83% 0.00 in WeatherDisplay:10.37 W/m2 BKN
13:30 66.8 °F 61.5 °F 29.97 in Calm   2.0 mph 83% 0.00 in WeatherDisplay:10.37 W/m2 BKN
13:40 67.2 °F 60.8 °F 29.96 in Calm   2.0 mph 80% 0.00 in WeatherDisplay:10.37 W/m2 BKN
13:45 67.3 °F 61.2 °F 29.96 in Calm   1.0 mph 81% 0.00 in WeatherDisplay:10.37 W/m2 BKN
13:50 67.4 °F 61.0 °F 29.96 in Calm   2.0 mph 80% 0.00 in WeatherDisplay:10.37 W/m2 BKN
13:55 67.7 °F 60.6 °F 29.96 in Calm   1.0 mph 78% 0.00 in WeatherDisplay:10.37 W/m2 BKN
14:00 68.4 °F 60.5 °F 29.95 in West 1.0 mph 2.0 mph 76% 0.00 in WeatherDisplay:10.37 W/m2 BKN
14:05 68.8 °F 59.8 °F 29.96 in WNW 1.0 mph 5.0 mph 73% 0.00 in WeatherDisplay:10.37 W/m2 BKN
14:10 69.3 °F 61.1 °F 29.96 in Calm   1.0 mph 75% 0.00 in WeatherDisplay:10.37 W/m2 BKN
14:15 69.6 °F 57.7 °F 29.96 in Calm   6.0 mph 66% 0.00 in WeatherDisplay:10.37 W/m2 BKN
14:20 69.4 °F 57.5 °F 29.96 in North 1.0 mph 3.0 mph 66% 0.00 in WeatherDisplay:10.37 W/m2 BKN
14:25 69.3 °F 54.8 °F 29.96 in ENE 1.0 mph 5.0 mph 60% 0.00 in WeatherDisplay:10.37 W/m2 BKN
14:30 69.3 °F 56.2 °F 29.96 in SW 1.0 mph 5.0 mph 63% 0.00 in WeatherDisplay:10.37 W/m2 BKN
14:35 69.4 °F 56.3 °F 29.96 in Calm   2.0 mph 63% 0.00 in WeatherDisplay:10.37 W/m2 BKN
14:40 69.2 °F 55.6 °F 29.96 in Calm   3.0 mph 62% 0.00 in WeatherDisplay:10.37 W/m2 BKN
14:45 69.4 °F 56.3 °F 29.96 in Calm   5.0 mph 63% 0.00 in WeatherDisplay:10.37 W/m2 BKN
14:50 69.4 °F 57.1 °F 29.95 in Calm   3.0 mph 65% 0.00 in WeatherDisplay:10.37 W/m2 BKN
14:55 69.7 °F 56.5 °F 29.95 in Calm   2.0 mph 63% 0.00 in WeatherDisplay:10.37 W/m2 BKN
15:00 69.9 °F 58.4 °F 29.95 in West 1.0 mph 5.0 mph 67% 0.00 in WeatherDisplay:10.37 W/m2 BKN
15:05 69.6 °F 54.7 °F 29.95 in WNW 1.0 mph 5.0 mph 59% 0.00 in WeatherDisplay:10.37 W/m2 BKN
15:10 69.4 °F 56.7 °F 29.95 in Calm   2.0 mph 64% 0.00 in WeatherDisplay:10.37 W/m2 BKN
15:15 69.5 °F 56.8 °F 29.95 in WNW 1.0 mph 3.0 mph 64% 0.00 in WeatherDisplay:10.37 W/m2 BKN
15:20 69.8 °F 56.1 °F 29.95 in Calm   5.0 mph 62% 0.00 in WeatherDisplay:10.37 W/m2 FEW
15:25 70.0 °F 55.5 °F 29.95 in Calm   2.0 mph 60% 0.00 in WeatherDisplay:10.37 W/m2 FEW
15:30 70.1 °F 56.5 °F 29.95 in Calm   2.0 mph 62% 0.00 in WeatherDisplay:10.37 W/m2 FEW
15:35 70.3 °F 55.8 °F 29.95 in ENE 1.0 mph 3.0 mph 60% 0.00 in WeatherDisplay:10.37 W/m2 FEW
15:40 70.3 °F 55.3 °F 29.94 in SSE 1.0 mph 2.0 mph 59% 0.00 in WeatherDisplay:10.37 W/m2 FEW
15:45 70.3 °F 55.8 °F 29.94 in SSW 1.0 mph 3.0 mph 60% 0.00 in WeatherDisplay:10.37 W/m2 FEW
15:50 70.3 °F 54.8 °F 29.94 in SW 1.0 mph 5.0 mph 58% 0.00 in WeatherDisplay:10.37 W/m2 FEW
15:55 70.3 °F 54.8 °F 29.94 in SSW 1.0 mph 3.0 mph 58% 0.00 in WeatherDisplay:10.37 W/m2 FEW
16:00 70.4 °F 54.5 °F 29.94 in Calm   3.0 mph 57% 0.00 in WeatherDisplay:10.37 W/m2 FEW
16:10 70.5 °F 54.5 °F 29.94 in Calm   2.0 mph 57% 0.00 in WeatherDisplay:10.37 W/m2 FEW
16:15 70.2 °F 54.3 °F 29.94 in Calm   3.0 mph 57% 0.00 in WeatherDisplay:10.37 W/m2 FEW
16:20 70.0 °F 54.1 °F 29.95 in Calm   3.0 mph 57% 0.00 in WeatherDisplay:10.37 W/m2 FEW
16:25 70.1 °F 55.6 °F 29.94 in Calm   1.0 mph 60% 0.00 in WeatherDisplay:10.37 W/m2 FEW
16:30 70.3 °F 53.8 °F 29.94 in Calm   2.0 mph 56% 0.00 in WeatherDisplay:10.37 W/m2 FEW
16:40 70.9 °F 55.4 °F 29.95 in West 1.0 mph 5.0 mph 58% 0.00 in WeatherDisplay:10.37 W/m2 FEW
16:45 70.8 °F 54.3 °F 29.94 in Calm   2.0 mph 56% 0.00 in WeatherDisplay:10.37 W/m2 FEW
16:50 70.7 °F 55.2 °F 29.95 in Calm   5.0 mph 58% 0.00 in WeatherDisplay:10.37 W/m2 FEW
16:55 70.3 °F 54.8 °F 29.95 in Calm   3.0 mph 58% 0.00 in WeatherDisplay:10.37 W/m2 FEW
17:00 69.8 °F 53.9 °F 29.95 in Calm   1.0 mph 57% 0.00 in WeatherDisplay:10.37 W/m2 FEW
17:05 69.6 °F 55.1 °F 29.94 in Calm   1.0 mph 60% 0.00 in WeatherDisplay:10.37 W/m2 FEW
17:10 69.7 °F 54.7 °F 29.94 in Calm   2.0 mph 59% 0.00 in WeatherDisplay:10.37 W/m2 FEW
17:15 69.6 °F 53.7 °F 29.94 in West 1.0 mph 2.0 mph 57% 0.00 in WeatherDisplay:10.37 W/m2 FEW
17:20 69.4 °F 54.5 °F 29.95 in Calm   2.0 mph 59% 0.00 in WeatherDisplay:10.37 W/m2 FEW
17:25 69.2 °F 54.8 °F 29.95 in Calm   2.0 mph 60% 0.00 in WeatherDisplay:10.37 W/m2 FEW
17:30 69.3 °F 53.4 °F 29.95 in Calm   3.0 mph 57% 0.00 in WeatherDisplay:10.37 W/m2 FEW
17:35 69.3 °F 53.9 °F 29.95 in Calm   1.0 mph 58% 0.00 in WeatherDisplay:10.37 W/m2 FEW
17:40 69.0 °F 55.0 °F 29.95 in Calm     61% 0.00 in WeatherDisplay:10.37 W/m2 FEW
17:45 68.6 °F 54.6 °F 29.95 in Calm     61% 0.00 in WeatherDisplay:10.37 W/m2 FEW
17:50 68.3 °F 53.9 °F 29.95 in Calm   1.0 mph 60% 0.00 in WeatherDisplay:10.37 W/m2 FEW
17:55 68.2 °F 54.3 °F 29.95 in Calm   1.0 mph 61% 0.00 in WeatherDisplay:10.37 W/m2 FEW
18:00 68.3 °F 54.8 °F 29.96 in Calm   1.0 mph 62% 0.00 in WeatherDisplay:10.37 W/m2 FEW
18:05 68.3 °F 53.9 °F 29.96 in Calm   2.0 mph 60% 0.00 in WeatherDisplay:10.37 W/m2 FEW
18:10 68.4 °F 52.6 °F 29.96 in Calm   3.0 mph 57% 0.00 in WeatherDisplay:10.37 W/m2 FEW
18:15 68.5 °F 50.7 °F 29.96 in Calm   2.0 mph 53% 0.00 in WeatherDisplay:10.37 W/m2 FEW
18:20 68.5 °F 52.2 °F 29.96 in Calm   1.0 mph 56% 0.00 in WeatherDisplay:10.37 W/m2 FEW
18:25 68.3 °F 48.4 °F 29.96 in Calm   5.0 mph 49% 0.00 in WeatherDisplay:10.37 W/m2 FEW
18:30 68.4 °F 50.1 °F 29.97 in Calm   5.0 mph 52% 0.00 in WeatherDisplay:10.37 W/m2 FEW
18:35 68.0 °F 50.2 °F 29.96 in Calm   1.0 mph 53% 0.00 in WeatherDisplay:10.37 W/m2 FEW
18:40 67.6 °F 49.9 °F 29.97 in Calm   1.0 mph 53% 0.00 in WeatherDisplay:10.37 W/m2 FEW
18:45 67.5 °F 49.3 °F 29.97 in Calm   1.0 mph 52% 0.00 in WeatherDisplay:10.37 W/m2 FEW
18:50 67.4 °F 50.2 °F 29.97 in Calm     54% 0.00 in WeatherDisplay:10.37 W/m2 FEW
18:55 67.1 °F 50.4 °F 29.97 in Calm   1.0 mph 55% 0.00 in WeatherDisplay:10.37 W/m2 FEW
19:00 67.1 °F 50.4 °F 29.97 in Calm   1.0 mph 55% 0.00 in WeatherDisplay:10.37 W/m2 FEW
19:10 66.5 °F 52.2 °F 29.97 in Calm   1.0 mph 60% 0.00 in WeatherDisplay:10.37 W/m2 FEW
19:15 66.2 °F 52.3 °F 29.97 in Calm     61% 0.00 in WeatherDisplay:10.37 W/m2 FEW
19:20 65.8 °F 53.3 °F 29.97 in Calm     64% 0.00 in WeatherDisplay:10.37 W/m2 FEW
19:30 65.0 °F 53.4 °F 29.98 in Calm     66% 0.00 in WeatherDisplay:10.37 W/m2 FEW
19:40 64.4 °F 53.6 °F 29.98 in Calm     68% 0.00 in WeatherDisplay:10.37 W/m2 FEW
19:45 64.2 °F 53.4 °F 29.98 in Calm     68% 0.00 in WeatherDisplay:10.37 W/m2 FEW
19:50 63.9 °F 53.5 °F 29.98 in Calm     69% 0.00 in WeatherDisplay:10.37 W/m2 FEW
19:55 63.7 °F 54.1 °F 29.99 in Calm     71% 0.00 in WeatherDisplay:10.37 W/m2 FEW
20:00 63.5 °F 53.5 °F 29.99 in Calm     70% 0.00 in WeatherDisplay:10.37 W/m2 FEW
20:10 63.2 °F 53.3 °F 29.99 in Calm     70% 0.00 in WeatherDisplay:10.37 W/m2 FEW
20:15 63.0 °F 53.0 °F 29.99 in Calm     70% 0.00 in WeatherDisplay:10.37 W/m2 FEW
20:20 62.8 °F 53.6 °F 30.00 in Calm     72% 0.00 in WeatherDisplay:10.37 W/m2 FEW
20:25 62.5 °F 53.8 °F 30.00 in Calm     73% 0.00 in WeatherDisplay:10.37 W/m2 FEW
20:30 62.3 °F 53.9 °F 30.00 in Calm     74% 0.00 in WeatherDisplay:10.37 W/m2 FEW
20:35 62.0 °F 53.6 °F 30.00 in Calm     74% 0.00 in WeatherDisplay:10.37 W/m2 FEW
20:40 61.7 °F 53.7 °F 30.01 in Calm     75% 0.00 in WeatherDisplay:10.37 W/m2 FEW
20:45 61.5 °F 53.8 °F 30.01 in Calm     76% 0.00 in WeatherDisplay:10.37 W/m2 FEW
20:50 61.2 °F 53.6 °F 30.01 in Calm     76% 0.00 in WeatherDisplay:10.37 W/m2 FEW
20:55 61.0 °F 53.8 °F 30.01 in Calm     77% 0.00 in WeatherDisplay:10.37 W/m2 FEW
Piedmont Bend
Compliments of Weather Underground - 4 mb